createdAt,value
2018-11-21T00:00:16.103Z,1007.03
2018-11-21T00:01:16.115Z,1006.99
2018-11-21T00:02:16.121Z,1007.04
2018-11-21T00:03:16.132Z,1007.01
2018-11-21T00:04:16.136Z,1006.99
2018-11-21T00:05:16.142Z,1006.97
2018-11-21T00:06:16.154Z,1006.93
2018-11-21T00:07:16.158Z,1006.92
2018-11-21T00:08:16.190Z,1006.89
2018-11-21T00:09:16.172Z,1006.90
2018-11-21T00:10:16.184Z,1006.90
2018-11-21T00:11:16.188Z,1006.93
2018-11-21T00:12:16.199Z,1006.95
2018-11-21T00:13:16.208Z,1007.02
2018-11-21T00:14:16.319Z,1007.11
2018-11-21T00:15:16.267Z,1007.15
2018-11-21T00:16:16.294Z,1007.16
2018-11-21T00:17:16.231Z,1007.13
2018-11-21T00:18:16.250Z,1007.13
2018-11-21T00:19:16.267Z,1007.13
2018-11-21T00:20:16.253Z,1007.11
2018-11-21T00:21:16.263Z,1007.17
2018-11-21T00:22:16.270Z,1007.14
2018-11-21T00:23:16.285Z,1007.19
2018-11-21T00:24:16.291Z,1007.21
2018-11-21T00:25:16.476Z,1007.24
2018-11-21T00:26:16.305Z,1007.17
2018-11-21T00:27:16.309Z,1007.17
2018-11-21T00:28:16.388Z,1007.15
2018-11-21T00:29:16.324Z,1007.20
2018-11-21T00:30:16.452Z,1007.16
2018-11-21T00:31:16.338Z,1007.14
2018-11-21T00:32:16.348Z,1007.12
2018-11-21T00:33:16.353Z,1007.02
2018-11-21T00:34:16.361Z,1007.04
2018-11-21T00:35:16.372Z,1007.04
2018-11-21T00:36:16.376Z,1007.01
2018-11-21T00:37:16.383Z,1007.03
2018-11-21T00:38:16.391Z,1007.00
2018-11-21T00:39:16.397Z,1006.97
2018-11-21T00:40:16.410Z,1006.98
2018-11-21T00:42:16.422Z,1007.05
2018-11-21T00:43:16.433Z,1007.00
2018-11-21T00:44:16.444Z,1007.04
2018-11-21T00:45:16.449Z,1007.02
2018-11-21T00:46:16.454Z,1007.00
2018-11-21T00:47:16.460Z,1007.01
2018-11-21T00:48:16.467Z,1006.95
2018-11-21T00:49:16.481Z,1006.99
2018-11-21T00:50:16.479Z,1006.90
2018-11-21T00:51:16.579Z,1006.92
2018-11-21T00:52:16.496Z,1006.93
2018-11-21T00:53:16.512Z,1006.89
2018-11-21T00:54:16.513Z,1006.92
2018-11-21T00:55:16.521Z,1006.89
2018-11-21T00:56:16.527Z,1006.93
2018-11-21T00:57:16.535Z,1006.88
2018-11-21T00:58:16.542Z,1006.92
2018-11-21T00:59:16.547Z,1006.90
2018-11-21T01:00:16.561Z,1006.88
2018-11-21T01:01:16.565Z,1006.93
2018-11-21T01:02:16.582Z,1006.89
2018-11-21T01:03:16.587Z,1006.90
2018-11-21T01:04:16.584Z,1006.92
2018-11-21T01:05:16.595Z,1006.88
2018-11-21T01:06:16.606Z,1006.95
2018-11-21T01:07:16.606Z,1006.94
2018-11-21T01:08:16.648Z,1006.98
2018-11-21T01:09:16.626Z,1006.97
2018-11-21T01:10:16.629Z,1006.99
2018-11-21T01:11:16.636Z,1006.98
2018-11-21T01:12:16.656Z,1006.98
2018-11-21T01:13:16.659Z,1007.01
2018-11-21T01:14:16.763Z,1007.01
2018-11-21T01:16:16.783Z,1007.08
2018-11-21T01:17:16.734Z,1007.09
2018-11-21T01:18:16.843Z,1007.13
2018-11-21T01:19:16.715Z,1007.16
2018-11-21T01:20:16.704Z,1007.21
2018-11-21T01:21:16.709Z,1007.21
2018-11-21T01:22:16.745Z,1007.24
2018-11-21T01:23:16.732Z,1007.25
2018-11-21T01:24:16.733Z,1007.29
2018-11-21T01:25:16.763Z,1007.26
2018-11-21T01:26:16.758Z,1007.31
2018-11-21T01:27:16.754Z,1007.27
2018-11-21T01:28:16.760Z,1007.33
2018-11-21T01:29:16.769Z,1007.40
2018-11-21T01:30:16.778Z,1007.38
2018-11-21T01:31:16.786Z,1007.40
2018-11-21T01:32:16.791Z,1007.41
2018-11-21T01:33:16.798Z,1007.41
2018-11-21T01:34:16.806Z,1007.36
2018-11-21T01:35:16.817Z,1007.40
2018-11-21T01:36:16.822Z,1007.43
2018-11-21T01:37:16.833Z,1007.45
2018-11-21T01:38:16.834Z,1007.53
2018-11-21T01:39:16.844Z,1007.56
2018-11-21T01:40:16.851Z,1007.54
2018-11-21T01:41:16.860Z,1007.56
2018-11-21T01:42:16.865Z,1007.50
2018-11-21T01:43:16.876Z,1007.45
2018-11-21T01:44:16.882Z,1007.45
2018-11-21T01:45:16.890Z,1007.44
2018-11-21T01:47:16.925Z,1007.43
2018-11-21T01:48:16.916Z,1007.49
2018-11-21T01:49:16.922Z,1007.48
2018-11-21T01:50:16.924Z,1007.46
2018-11-21T01:51:16.930Z,1007.50
2018-11-21T01:52:16.946Z,1007.50
2018-11-21T01:53:16.994Z,1007.52
2018-11-21T01:54:17.026Z,1007.57
2018-11-21T01:55:16.960Z,1007.56
2018-11-21T01:56:16.966Z,1007.57
2018-11-21T01:57:16.976Z,1007.56
2018-11-21T01:58:16.983Z,1007.58
2018-11-21T01:59:16.990Z,1007.57
2018-11-21T02:00:17.013Z,1007.58
2018-11-21T02:01:17.005Z,1007.58
2018-11-21T02:02:17.012Z,1007.52
2018-11-21T02:03:17.169Z,1007.54
2018-11-21T02:04:17.028Z,1007.52
2018-11-21T02:05:17.034Z,1007.54
2018-11-21T02:06:17.043Z,1007.52
2018-11-21T02:07:17.047Z,1007.57
2018-11-21T02:08:17.056Z,1007.59
2018-11-21T02:09:17.070Z,1007.56
2018-11-21T02:10:17.080Z,1007.51
2018-11-21T02:11:17.078Z,1007.50
2018-11-21T02:12:17.086Z,1007.56
2018-11-21T02:13:17.109Z,1007.54
2018-11-21T02:14:17.150Z,1007.53
2018-11-21T02:15:17.143Z,1007.57
2018-11-21T02:16:17.114Z,1007.57
2018-11-21T02:17:17.126Z,1007.62
2018-11-21T02:18:17.133Z,1007.58
2018-11-21T02:19:17.138Z,1007.64
2018-11-21T02:20:17.150Z,1007.65
2018-11-21T02:21:17.209Z,1007.66
2018-11-21T02:22:17.160Z,1007.68
2018-11-21T02:23:17.169Z,1007.70
2018-11-21T02:24:17.179Z,1007.75
2018-11-21T02:25:17.184Z,1007.69
2018-11-21T02:26:17.191Z,1007.67
2018-11-21T02:27:17.196Z,1007.69
2018-11-21T02:28:17.209Z,1007.72
2018-11-21T02:29:17.215Z,1007.70
2018-11-21T02:30:17.226Z,1007.74
2018-11-21T02:31:17.225Z,1007.75
2018-11-21T02:32:17.235Z,1007.78
2018-11-21T02:33:17.243Z,1007.80
2018-11-21T02:34:17.248Z,1007.84
2018-11-21T02:35:17.256Z,1007.80
2018-11-21T02:36:17.260Z,1007.80
2018-11-21T02:37:17.272Z,1007.84
2018-11-21T02:38:17.292Z,1007.88
2018-11-21T02:39:17.290Z,1007.90
2018-11-21T02:40:17.294Z,1007.91
2018-11-21T02:41:17.301Z,1007.88
2018-11-21T02:42:17.341Z,1007.81
2018-11-21T02:43:17.319Z,1007.77
2018-11-21T02:44:17.339Z,1007.79
2018-11-21T02:45:17.335Z,1007.77
2018-11-21T02:46:17.706Z,1007.87
2018-11-21T02:47:17.345Z,1007.86
2018-11-21T02:48:17.353Z,1007.84
2018-11-21T02:49:17.368Z,1007.80
2018-11-21T02:50:17.371Z,1007.79
2018-11-21T02:51:17.379Z,1007.77
2018-11-21T02:52:17.734Z,1007.73
2018-11-21T02:53:17.391Z,1007.69
2018-11-21T02:54:17.396Z,1007.72
2018-11-21T02:56:17.511Z,1007.77
2018-11-21T02:57:17.420Z,1007.78
2018-11-21T02:58:17.431Z,1007.80
2018-11-21T03:00:17.543Z,1007.80
2018-11-21T03:01:17.453Z,1007.80
2018-11-21T03:02:17.459Z,1007.82
2018-11-21T03:03:17.466Z,1007.80
2018-11-21T03:04:17.479Z,1007.78
2018-11-21T03:05:17.483Z,1007.77
2018-11-21T03:06:17.490Z,1007.76
2018-11-21T03:07:17.496Z,1007.69
2018-11-21T03:08:17.503Z,1007.71
2018-11-21T03:09:17.512Z,1007.70
2018-11-21T03:10:17.520Z,1007.70
2018-11-21T03:11:17.527Z,1007.72
2018-11-21T03:12:17.531Z,1007.76
2018-11-21T03:13:17.546Z,1007.74
2018-11-21T03:14:17.606Z,1007.72
2018-11-21T03:15:17.565Z,1007.69
2018-11-21T03:16:17.570Z,1007.71
2018-11-21T03:17:17.567Z,1007.62
2018-11-21T03:18:17.581Z,1007.67
2018-11-21T03:19:17.585Z,1007.68
2018-11-21T03:20:17.586Z,1007.67
2018-11-21T03:21:17.595Z,1007.66
2018-11-21T03:22:17.951Z,1007.65
2018-11-21T03:23:17.613Z,1007.70
2018-11-21T03:24:17.619Z,1007.66
2018-11-21T03:25:17.630Z,1007.69
2018-11-21T03:26:17.641Z,1007.68
2018-11-21T03:27:17.640Z,1007.74
2018-11-21T03:28:17.648Z,1007.77
2018-11-21T03:29:17.661Z,1007.81
2018-11-21T03:30:17.671Z,1007.86
2018-11-21T03:31:17.670Z,1007.83
2018-11-21T03:32:17.679Z,1007.90
2018-11-21T03:33:17.686Z,1007.87
2018-11-21T03:34:17.696Z,1007.87
2018-11-21T03:35:17.703Z,1007.93
2018-11-21T03:36:17.738Z,1007.93
2018-11-21T03:37:17.717Z,1007.93
2018-11-21T03:38:17.725Z,1007.92
2018-11-21T03:39:17.731Z,1007.96
2018-11-21T03:40:17.742Z,1007.99
2018-11-21T03:41:17.746Z,1008.01
2018-11-21T03:42:17.754Z,1007.99
2018-11-21T03:43:17.775Z,1007.97
2018-11-21T03:44:17.827Z,1008.00
2018-11-21T03:45:17.784Z,1007.99
2018-11-21T03:46:17.804Z,1008.01
2018-11-21T03:47:17.791Z,1008.11
2018-11-21T03:48:17.801Z,1008.16
2018-11-21T03:49:17.807Z,1008.12
2018-11-21T03:50:17.827Z,1008.11
2018-11-21T03:51:17.825Z,1008.16
2018-11-21T03:52:17.832Z,1008.16
2018-11-21T03:53:17.839Z,1008.23
2018-11-21T03:54:17.844Z,1008.33
2018-11-21T03:55:17.900Z,1008.36
2018-11-21T03:56:17.861Z,1008.29
2018-11-21T03:57:17.867Z,1008.37
2018-11-21T03:58:17.874Z,1008.29
2018-11-21T03:59:17.885Z,1008.31
2018-11-21T04:00:17.893Z,1008.29
2018-11-21T04:01:17.898Z,1008.29
2018-11-21T04:02:17.913Z,1008.31
2018-11-21T04:03:17.911Z,1008.36
2018-11-21T04:04:17.920Z,1008.43
2018-11-21T04:05:17.935Z,1008.45
2018-11-21T04:06:17.944Z,1008.56
2018-11-21T04:07:17.950Z,1008.51
2018-11-21T04:08:17.960Z,1008.52
2018-11-21T04:09:17.961Z,1008.50
2018-11-21T04:10:17.979Z,1008.43
2018-11-21T04:11:17.974Z,1008.37
2018-11-21T04:12:17.980Z,1008.35
2018-11-21T04:13:18.338Z,1008.31
2018-11-21T04:14:18.005Z,1008.29
2018-11-21T04:15:18.004Z,1008.35
2018-11-21T04:16:18.014Z,1008.43
2018-11-21T04:17:18.017Z,1008.48
2018-11-21T04:18:18.027Z,1008.51
2018-11-21T04:19:18.287Z,1008.55
2018-11-21T04:20:18.043Z,1008.62
2018-11-21T04:21:18.051Z,1008.61
2018-11-21T04:22:18.104Z,1008.61
2018-11-21T04:23:18.111Z,1008.58
2018-11-21T04:24:18.422Z,1008.57
2018-11-21T04:26:18.089Z,1008.60
2018-11-21T04:27:18.091Z,1008.65
2018-11-21T04:28:18.100Z,1008.71
2018-11-21T04:29:18.108Z,1008.72
2018-11-21T04:30:18.117Z,1008.71
2018-11-21T04:31:18.121Z,1008.67
2018-11-21T04:32:18.128Z,1008.64
2018-11-21T04:33:18.139Z,1008.69
2018-11-21T04:34:18.145Z,1008.61
2018-11-21T04:35:18.157Z,1008.68
2018-11-21T04:36:18.158Z,1008.77
2018-11-21T04:37:18.166Z,1008.78
2018-11-21T04:38:18.176Z,1008.85
2018-11-21T04:39:18.237Z,1008.89
2018-11-21T04:40:18.195Z,1008.99
2018-11-21T04:41:18.195Z,1009.01
2018-11-21T04:42:18.206Z,1009.11
2018-11-21T04:43:18.216Z,1009.09
2018-11-21T04:44:18.220Z,1009.09
2018-11-21T04:45:18.236Z,1009.10
2018-11-21T04:46:18.235Z,1009.08
2018-11-21T04:47:18.250Z,1009.03
2018-11-21T04:48:18.248Z,1009.03
2018-11-21T04:49:18.259Z,1009.04
2018-11-21T04:50:18.266Z,1009.10
2018-11-21T04:51:18.273Z,1009.07
2018-11-21T04:52:18.288Z,1009.05
2018-11-21T04:53:18.391Z,1009.06
2018-11-21T04:54:18.351Z,1009.03
2018-11-21T04:55:18.303Z,1009.05
2018-11-21T04:56:18.307Z,1009.05
2018-11-21T04:57:18.365Z,1009.12
2018-11-21T04:58:18.354Z,1009.06
2018-11-21T04:59:18.411Z,1009.08
2018-11-21T05:00:18.342Z,1009.13
2018-11-21T05:01:18.349Z,1009.14
2018-11-21T05:02:18.361Z,1009.11
2018-11-21T05:03:18.364Z,1009.10
2018-11-21T05:04:18.371Z,1009.13
2018-11-21T05:05:18.378Z,1009.10
2018-11-21T05:06:18.443Z,1009.07
2018-11-21T05:07:18.404Z,1009.04
2018-11-21T05:08:18.400Z,1009.07
2018-11-21T05:09:18.459Z,1009.06
2018-11-21T05:10:18.415Z,1009.09
2018-11-21T05:11:18.459Z,1009.14
2018-11-21T05:12:18.433Z,1009.10
2018-11-21T05:13:18.440Z,1009.22
2018-11-21T05:14:18.447Z,1009.22
2018-11-21T05:15:18.463Z,1009.21
2018-11-21T05:16:18.462Z,1009.22
2018-11-21T05:17:18.481Z,1009.25
2018-11-21T05:18:18.483Z,1009.28
2018-11-21T05:19:18.495Z,1009.23
2018-11-21T05:20:18.492Z,1009.23
2018-11-21T05:21:18.519Z,1009.23
2018-11-21T05:22:18.508Z,1009.25
2018-11-21T05:23:18.514Z,1009.29
2018-11-21T05:24:18.523Z,1009.25
2018-11-21T05:25:18.632Z,1009.28
2018-11-21T05:26:18.544Z,1009.27
2018-11-21T05:27:18.545Z,1009.28
2018-11-21T05:28:18.557Z,1009.22
2018-11-21T05:29:18.561Z,1009.28
2018-11-21T05:30:18.573Z,1009.26
2018-11-21T05:31:18.596Z,1009.27
2018-11-21T05:32:18.586Z,1009.26
2018-11-21T05:33:18.822Z,1009.27
2018-11-21T05:34:18.602Z,1009.29
2018-11-21T05:35:18.606Z,1009.26
2018-11-21T05:36:18.617Z,1009.25
2018-11-21T05:37:18.621Z,1009.24
2018-11-21T05:38:18.645Z,1009.22
2018-11-21T05:39:18.686Z,1009.24
2018-11-21T05:40:18.651Z,1009.25
2018-11-21T05:41:18.702Z,1009.27
2018-11-21T05:42:18.662Z,1009.33
2018-11-21T05:43:18.668Z,1009.30
2018-11-21T05:44:18.673Z,1009.29
2018-11-21T05:45:18.681Z,1009.36
2018-11-21T05:46:18.691Z,1009.34
2018-11-21T05:47:18.708Z,1009.36
2018-11-21T05:48:18.704Z,1009.34
2018-11-21T05:49:18.711Z,1009.33
2018-11-21T05:50:18.722Z,1009.34
2018-11-21T05:51:18.746Z,1009.35
2018-11-21T05:52:18.781Z,1009.37
2018-11-21T05:53:18.744Z,1009.42
2018-11-21T05:54:18.761Z,1009.41
2018-11-21T05:55:18.770Z,1009.43
2018-11-21T05:56:18.779Z,1009.43
2018-11-21T05:57:18.775Z,1009.46
2018-11-21T05:58:18.793Z,1009.47
2018-11-21T05:59:18.786Z,1009.48
2018-11-21T06:00:18.846Z,1009.54
2018-11-21T06:01:18.802Z,1009.51
2018-11-21T06:02:18.821Z,1009.52
2018-11-21T06:03:18.822Z,1009.52
2018-11-21T06:04:18.824Z,1009.59
2018-11-21T06:05:18.838Z,1009.58
2018-11-21T06:06:18.840Z,1009.60
2018-11-21T06:07:18.850Z,1009.60
2018-11-21T06:08:18.865Z,1009.62
2018-11-21T06:09:18.869Z,1009.57
2018-11-21T06:10:18.874Z,1009.62
2018-11-21T06:11:18.880Z,1009.60
2018-11-21T06:12:18.886Z,1009.62
2018-11-21T06:13:18.895Z,1009.63
2018-11-21T06:14:18.905Z,1009.67
2018-11-21T06:15:18.913Z,1009.71
2018-11-21T06:16:18.923Z,1009.71
2018-11-21T06:17:18.937Z,1009.72
2018-11-21T06:18:18.933Z,1009.73
2018-11-21T06:19:18.996Z,1009.76
2018-11-21T06:20:18.948Z,1009.78
2018-11-21T06:21:18.957Z,1009.81
2018-11-21T06:22:18.966Z,1009.79
2018-11-21T06:23:18.968Z,1009.81
2018-11-21T06:24:18.989Z,1009.80
2018-11-21T06:25:18.991Z,1009.85
2018-11-21T06:26:18.996Z,1009.85
2018-11-21T06:27:19.089Z,1009.85
2018-11-21T06:28:19.016Z,1009.86
2018-11-21T06:29:19.020Z,1009.91
2018-11-21T06:30:19.025Z,1009.95
2018-11-21T06:31:19.033Z,1009.91
2018-11-21T06:32:19.038Z,1009.97
2018-11-21T06:33:19.063Z,1009.96
2018-11-21T06:34:19.064Z,1009.98
2018-11-21T06:35:19.068Z,1009.98
2018-11-21T06:36:19.072Z,1010.05
2018-11-21T06:37:19.078Z,1010.09
2018-11-21T06:38:19.096Z,1010.07
2018-11-21T06:39:19.094Z,1010.10
2018-11-21T06:40:19.098Z,1010.11
2018-11-21T06:41:19.118Z,1010.07
2018-11-21T06:42:19.126Z,1010.05
2018-11-21T06:43:19.121Z,1010.08
2018-11-21T06:44:19.131Z,1010.09
2018-11-21T06:45:19.142Z,1010.08
2018-11-21T06:46:19.150Z,1010.13
2018-11-21T06:47:19.152Z,1010.11
2018-11-21T06:48:19.162Z,1010.10
2018-11-21T06:49:19.188Z,1010.17
2018-11-21T06:50:19.175Z,1010.16
2018-11-21T06:51:19.182Z,1010.17
2018-11-21T06:52:22.246Z,1010.24
2018-11-21T06:53:19.199Z,1010.25
2018-11-21T06:54:19.208Z,1010.26
2018-11-21T06:55:19.218Z,1010.26
2018-11-21T06:56:19.222Z,1010.29
2018-11-21T06:57:19.227Z,1010.28
2018-11-21T06:58:19.249Z,1010.28
2018-11-21T06:59:19.292Z,1010.28
2018-11-21T07:00:19.272Z,1010.32
2018-11-21T07:01:19.261Z,1010.31
2018-11-21T07:02:19.269Z,1010.30
2018-11-21T07:03:19.273Z,1010.32
2018-11-21T07:04:19.333Z,1010.35
2018-11-21T07:05:19.289Z,1010.33
2018-11-21T07:06:19.297Z,1010.34
2018-11-21T07:07:19.302Z,1010.33
2018-11-21T07:08:19.312Z,1010.28
2018-11-21T07:09:19.319Z,1010.27
2018-11-21T07:10:20.171Z,1010.25
2018-11-21T07:11:19.334Z,1010.26
2018-11-21T07:12:19.356Z,1010.31
2018-11-21T07:13:19.353Z,1010.32
2018-11-21T07:14:19.353Z,1010.31
2018-11-21T07:15:19.364Z,1010.31
2018-11-21T07:16:19.396Z,1010.37
2018-11-21T07:17:19.392Z,1010.35
2018-11-21T07:18:19.414Z,1010.31
2018-11-21T07:19:19.396Z,1010.33
2018-11-21T07:20:19.400Z,1010.29
2018-11-21T07:21:19.407Z,1010.34
2018-11-21T07:22:19.422Z,1010.28
2018-11-21T07:23:19.424Z,1010.28
2018-11-21T07:24:19.437Z,1010.32
2018-11-21T07:25:19.607Z,1010.32
2018-11-21T07:26:20.007Z,1010.32
2018-11-21T07:27:19.453Z,1010.33
2018-11-21T07:28:19.496Z,1010.34
2018-11-21T07:29:19.473Z,1010.36
2018-11-21T07:30:19.475Z,1010.37
2018-11-21T07:31:19.492Z,1010.38
2018-11-21T07:32:19.494Z,1010.38
2018-11-21T07:33:19.503Z,1010.41
2018-11-21T07:34:19.568Z,1010.43
2018-11-21T07:35:19.525Z,1010.48
2018-11-21T07:36:19.531Z,1010.49
2018-11-21T07:37:19.560Z,1010.55
2018-11-21T07:38:19.536Z,1010.56
2018-11-21T07:39:19.549Z,1010.55
2018-11-21T07:40:19.553Z,1010.60
2018-11-21T07:41:19.572Z,1010.67
2018-11-21T07:42:19.578Z,1010.68
2018-11-21T07:43:19.586Z,1010.69
2018-11-21T07:44:19.581Z,1010.72
2018-11-21T07:45:19.592Z,1010.79
2018-11-21T07:46:19.597Z,1010.81
2018-11-21T07:47:19.603Z,1010.76
2018-11-21T07:48:20.524Z,1010.80
2018-11-21T07:49:19.619Z,1010.79
2018-11-21T07:50:19.632Z,1010.81
2018-11-21T07:51:19.640Z,1010.84
2018-11-21T07:52:19.725Z,1010.89
2018-11-21T07:53:19.652Z,1010.87
2018-11-21T07:54:19.658Z,1010.87
2018-11-21T07:55:19.667Z,1010.90
2018-11-21T07:56:19.677Z,1010.89
2018-11-21T07:57:19.683Z,1010.94
2018-11-21T07:58:19.688Z,1010.98
2018-11-21T07:59:19.704Z,1011.00
2018-11-21T08:00:19.847Z,1010.99
2018-11-21T08:01:19.816Z,1011.05
2018-11-21T08:02:19.744Z,1011.04
2018-11-21T08:03:19.741Z,1011.05
2018-11-21T08:04:19.739Z,1011.05
2018-11-21T08:05:19.750Z,1011.07
2018-11-21T08:06:19.747Z,1011.11
2018-11-21T08:07:19.755Z,1011.03
2018-11-21T08:08:19.768Z,1011.00
2018-11-21T08:09:19.777Z,1011.05
2018-11-21T08:10:19.779Z,1011.04
2018-11-21T08:11:19.796Z,1010.99
2018-11-21T08:12:19.796Z,1011.02
2018-11-21T08:13:19.802Z,1011.01
2018-11-21T08:14:19.836Z,1011.01
2018-11-21T08:15:19.818Z,1011.02
2018-11-21T08:16:19.833Z,1011.05
2018-11-21T08:17:19.842Z,1011.09
2018-11-21T08:18:19.842Z,1011.14
2018-11-21T08:19:19.854Z,1011.13
2018-11-21T08:20:19.861Z,1011.12
2018-11-21T08:21:19.866Z,1011.12
2018-11-21T08:22:19.874Z,1011.13
2018-11-21T08:23:20.936Z,1011.14
2018-11-21T08:24:20.130Z,1011.19
2018-11-21T08:25:20.032Z,1011.19
2018-11-21T08:26:19.905Z,1011.23
2018-11-21T08:27:19.914Z,1011.20
2018-11-21T08:28:20.659Z,1011.26
2018-11-21T08:29:19.940Z,1011.25
2018-11-21T08:30:19.960Z,1011.22
2018-11-21T08:31:19.948Z,1011.20
2018-11-21T08:32:19.955Z,1011.23
2018-11-21T08:33:19.964Z,1011.24
2018-11-21T08:34:19.970Z,1011.24
2018-11-21T08:35:19.998Z,1011.29
2018-11-21T08:36:20.026Z,1011.33
2018-11-21T08:37:20.000Z,1011.31
2018-11-21T08:38:20.002Z,1011.33
2018-11-21T08:39:20.080Z,1011.32
2018-11-21T08:40:20.019Z,1011.33
2018-11-21T08:41:20.038Z,1011.31
2018-11-21T08:42:20.039Z,1011.35
2018-11-21T08:43:20.045Z,1011.32
2018-11-21T08:44:20.053Z,1011.32
2018-11-21T08:45:20.062Z,1011.29
2018-11-21T08:46:20.072Z,1011.31
2018-11-21T08:47:20.141Z,1011.32
2018-11-21T08:48:20.084Z,1011.26
2018-11-21T08:49:20.298Z,1011.29
2018-11-21T08:50:20.138Z,1011.27
2018-11-21T08:51:23.167Z,1011.29
2018-11-21T08:52:20.742Z,1011.32
2018-11-21T08:53:20.146Z,1011.27
2018-11-21T08:54:20.135Z,1011.26
2018-11-21T08:55:20.142Z,1011.29
2018-11-21T08:56:20.149Z,1011.30
2018-11-21T08:57:20.405Z,1011.28
2018-11-21T08:58:20.364Z,1011.23
2018-11-21T08:59:20.182Z,1011.21
2018-11-21T09:00:20.180Z,1011.26
2018-11-21T09:01:20.253Z,1011.25
2018-11-21T09:02:20.199Z,1011.32
2018-11-21T09:03:20.207Z,1011.33
2018-11-21T09:04:20.214Z,1011.37
2018-11-21T09:05:20.220Z,1011.40
2018-11-21T09:06:20.229Z,1011.44
2018-11-21T09:07:20.237Z,1011.47
2018-11-21T09:08:20.247Z,1011.43
2018-11-21T09:09:20.247Z,1011.49
2018-11-21T09:10:20.270Z,1011.44
2018-11-21T09:11:20.263Z,1011.48
2018-11-21T09:12:20.269Z,1011.48
2018-11-21T09:13:20.279Z,1011.50
2018-11-21T09:14:20.522Z,1011.51
2018-11-21T09:15:21.178Z,1011.58
2018-11-21T09:16:20.972Z,1011.54
2018-11-21T09:17:20.315Z,1011.63
2018-11-21T09:18:20.318Z,1011.67
2018-11-21T09:19:20.330Z,1011.69
2018-11-21T09:21:20.344Z,1011.66
2018-11-21T09:22:20.437Z,1011.68
2018-11-21T09:23:20.360Z,1011.72
2018-11-21T09:24:20.369Z,1011.72
2018-11-21T09:25:20.380Z,1011.73
2018-11-21T09:26:20.385Z,1011.73
2018-11-21T09:27:20.401Z,1011.76
2018-11-21T09:28:20.403Z,1011.77
2018-11-21T09:29:20.417Z,1011.71
2018-11-21T09:30:20.416Z,1011.70
2018-11-21T09:31:20.427Z,1011.72
2018-11-21T09:32:20.444Z,1011.77
2018-11-21T09:33:20.491Z,1011.80
2018-11-21T09:34:20.478Z,1011.72
2018-11-21T09:35:20.473Z,1011.74
2018-11-21T09:36:20.772Z,1011.71
2018-11-21T09:37:20.478Z,1011.70
2018-11-21T09:38:20.489Z,1011.68
2018-11-21T09:39:20.749Z,1011.66
2018-11-21T09:40:21.564Z,1011.68
2018-11-21T09:41:20.513Z,1011.68
2018-11-21T09:42:20.526Z,1011.61
2018-11-21T09:43:21.222Z,1011.63
2018-11-21T09:44:20.542Z,1011.67
2018-11-21T09:45:20.548Z,1011.66
2018-11-21T09:46:20.557Z,1011.71
2018-11-21T09:47:20.565Z,1011.72
2018-11-21T09:48:21.260Z,1011.78
2018-11-21T09:49:21.951Z,1011.82
2018-11-21T09:50:20.593Z,1011.84
2018-11-21T09:51:20.604Z,1011.82
2018-11-21T09:52:20.616Z,1011.85
2018-11-21T09:53:20.616Z,1011.89
2018-11-21T09:54:20.627Z,1011.88
2018-11-21T09:55:20.639Z,1011.91
2018-11-21T09:56:20.695Z,1011.92
2018-11-21T09:57:20.650Z,1011.90
2018-11-21T09:58:20.678Z,1011.94
2018-11-21T09:59:20.668Z,1011.91
2018-11-21T10:00:20.677Z,1011.87
2018-11-21T10:01:20.686Z,1011.94
2018-11-21T10:02:20.708Z,1011.96
2018-11-21T10:03:20.705Z,1011.93
2018-11-21T10:04:20.712Z,1011.96
2018-11-21T10:05:21.138Z,1011.95
2018-11-21T10:06:20.889Z,1011.96
2018-11-21T10:07:20.738Z,1011.93
2018-11-21T10:08:20.753Z,1012.03
2018-11-21T10:09:20.756Z,1011.99
2018-11-21T10:10:20.806Z,1011.96
2018-11-21T10:11:20.774Z,1012.00
2018-11-21T10:12:20.786Z,1012.04
2018-11-21T10:13:20.812Z,1012.05
2018-11-21T10:14:20.817Z,1012.07
2018-11-21T10:15:20.819Z,1012.05
2018-11-21T10:16:20.819Z,1012.06
2018-11-21T10:17:20.829Z,1012.02
2018-11-21T10:18:21.280Z,1012.04
2018-11-21T10:19:20.844Z,1011.94
2018-11-21T10:20:20.852Z,1011.97
2018-11-21T10:21:20.878Z,1011.96
2018-11-21T10:22:20.875Z,1011.96
2018-11-21T10:23:20.891Z,1012.00
2018-11-21T10:24:20.891Z,1012.01
2018-11-21T10:25:20.897Z,1012.05
2018-11-21T10:26:20.910Z,1012.10
2018-11-21T10:27:20.917Z,1012.11
2018-11-21T10:28:20.924Z,1012.10
2018-11-21T10:29:20.936Z,1012.07
2018-11-21T10:30:20.995Z,1012.11
2018-11-21T10:31:20.969Z,1012.07
2018-11-21T10:32:21.355Z,1012.10
2018-11-21T10:33:21.025Z,1012.12
2018-11-21T10:34:20.974Z,1012.09
2018-11-21T10:35:20.999Z,1012.12
2018-11-21T10:36:21.007Z,1012.10
2018-11-21T10:37:21.001Z,1012.06
2018-11-21T10:38:21.012Z,1012.12
2018-11-21T10:39:21.021Z,1012.10
2018-11-21T10:40:21.042Z,1012.14
2018-11-21T10:41:21.049Z,1012.20
2018-11-21T10:42:21.955Z,1012.15
2018-11-21T10:43:21.060Z,1012.20
2018-11-21T10:44:21.085Z,1012.16
2018-11-21T10:45:21.079Z,1012.22
2018-11-21T10:46:21.130Z,1012.18
2018-11-21T10:47:21.099Z,1012.17
2018-11-21T10:48:21.205Z,1012.17
2018-11-21T10:49:21.180Z,1012.15
2018-11-21T10:50:21.167Z,1012.19
2018-11-21T10:51:21.132Z,1012.19
2018-11-21T10:52:21.155Z,1012.17
2018-11-21T10:53:21.167Z,1012.21
2018-11-21T10:54:21.153Z,1012.23
2018-11-21T10:55:21.970Z,1012.18
2018-11-21T10:56:21.199Z,1012.17
2018-11-21T10:57:21.489Z,1012.22
2018-11-21T10:58:21.202Z,1012.14
2018-11-21T10:59:21.222Z,1012.10
2018-11-21T11:00:21.207Z,1012.11
2018-11-21T11:01:21.229Z,1012.12
2018-11-21T11:02:21.221Z,1012.09
2018-11-21T11:03:21.245Z,1012.11
2018-11-21T11:04:21.244Z,1012.10
2018-11-21T11:05:21.257Z,1012.07
2018-11-21T11:06:21.291Z,1012.15
2018-11-21T11:07:21.274Z,1012.14
2018-11-21T11:08:21.279Z,1012.10
2018-11-21T11:09:21.293Z,1012.11
2018-11-21T11:10:21.315Z,1012.09
2018-11-21T11:11:21.323Z,1012.04
2018-11-21T11:12:21.343Z,1012.02
2018-11-21T11:13:21.327Z,1012.06
2018-11-21T11:14:21.334Z,1012.12
2018-11-21T11:15:21.340Z,1012.15
2018-11-21T11:16:21.381Z,1012.22
2018-11-21T11:17:21.362Z,1012.18
2018-11-21T11:18:21.381Z,1012.22
2018-11-21T11:19:21.390Z,1012.33
2018-11-21T11:20:21.405Z,1012.33
2018-11-21T11:21:21.396Z,1012.33
2018-11-21T11:22:21.406Z,1012.30
2018-11-21T11:23:21.408Z,1012.32
2018-11-21T11:24:21.827Z,1012.30
2018-11-21T11:25:21.442Z,1012.28
2018-11-21T11:26:21.455Z,1012.35
2018-11-21T11:27:21.482Z,1012.32
2018-11-21T11:28:21.456Z,1012.31
2018-11-21T11:29:21.505Z,1012.36
2018-11-21T11:31:21.486Z,1012.36
2018-11-21T11:32:21.494Z,1012.44
2018-11-21T11:33:21.618Z,1012.42
2018-11-21T11:34:21.531Z,1012.42
2018-11-21T11:35:21.527Z,1012.39
2018-11-21T11:36:21.591Z,1012.42
2018-11-21T11:37:21.549Z,1012.43
2018-11-21T11:38:21.557Z,1012.43
2018-11-21T11:39:21.558Z,1012.51
2018-11-21T11:40:21.568Z,1012.52
2018-11-21T11:41:21.588Z,1012.52
2018-11-21T11:42:21.586Z,1012.52
2018-11-21T11:43:21.593Z,1012.51
2018-11-21T11:44:21.608Z,1012.55
2018-11-21T11:45:21.626Z,1012.46
2018-11-21T11:46:21.630Z,1012.47
2018-11-21T11:47:21.640Z,1012.50
2018-11-21T11:48:21.639Z,1012.50
2018-11-21T11:49:21.650Z,1012.56
2018-11-21T11:50:21.668Z,1012.60
2018-11-21T11:51:21.666Z,1012.52
2018-11-21T11:52:21.673Z,1012.53
2018-11-21T11:53:21.686Z,1012.47
2018-11-21T11:54:21.698Z,1012.52
2018-11-21T11:55:21.707Z,1012.50
2018-11-21T11:56:21.722Z,1012.50
2018-11-21T11:57:21.784Z,1012.50
2018-11-21T11:58:21.728Z,1012.50
2018-11-21T11:59:21.858Z,1012.49
2018-11-21T12:00:21.746Z,1012.45
2018-11-21T12:01:21.757Z,1012.44
2018-11-21T12:02:21.763Z,1012.46
2018-11-21T12:03:21.958Z,1012.40
2018-11-21T12:04:21.781Z,1012.41
2018-11-21T12:05:21.816Z,1012.40
2018-11-21T12:06:22.250Z,1012.36
2018-11-21T12:07:21.840Z,1012.35
2018-11-21T12:08:22.291Z,1012.37
2018-11-21T12:09:21.827Z,1012.36
2018-11-21T12:10:21.835Z,1012.36
2018-11-21T12:11:22.479Z,1012.36
2018-11-21T12:12:22.090Z,1012.39
2018-11-21T12:13:21.988Z,1012.38